Weather at Great Harbour Cay Airport

Public forecast

Using degrees Celsius for public forecast. Weather courtesy of forecast.io.

Closest aviation weather report (METAR) to Great Harbour Cay Airport

Closest report is Lynden Pindling International Airport, 46.6 nm (86.4 km) SSE. Retrieved 2020/09/20 09:00 UTC (37 minutes ago):

MYNN 200900Z 00000KT 9999 FEW025 25/24 A2990

Closest aviation forecast (TAF) to Great Harbour Cay Airport

Forecast is more than 6 hours old.

Closest forecast is Lynden Pindling International Airport, 46.6 nm (86.4 km) SSE. Retrieved 2020-09-20 00:24 UTC (9 hours ago):

TAF MYNN 192300Z 2000/2024 VRB05KT 9999 FEW020 SCT220